KIKT

Nakika

Nakika, Mississippi, USA
METAR KIKT 200855Z AUTO 20007KT 10SM FEW020 28/23 A2996 RMK A01
Observed Flight Rules
Jun-20 @ 08:55 UTC (16 minutes ago) Visual Flight Rules
Wind Visibility Clouds
200° at 7 knots 10 miles
  • Few at 2,000' AGL
Temperatures Readings
Current 28°C / 82°F
Dewpoint 23°C / 73°F
Humidity 74%
Altimeter 29.96" Hg
Pressure 1015 hPa
Elevation 25
METAR KIKT 200855Z AUTO 20007KT 10SM FEW020 28/23 A2996 RMK A01
Observed Flight Rules
Jun-20 @ 08:55 UTC
(16 minutes ago)
VFR
Wind Visibility
200° at 7 knots 10 miles
Clouds
  • Few at 2,000' AGL
Temperature Dewpoint
28°C / 82°F 23°C / 73°F
Humidity Altimeter Pressure
74% 29.96" Hg 1015 hPa